This is the latest recevied weather packets stored in our database for station/object WX6HNX-14. If no packets are shown the sender has not sent any weather packets the latest 1 day(s).
| Time | Temp. | Humidity | Pressure | Rain* | Wind** | Luminosity | Snow |
|---|---|---|---|---|---|---|---|
| 1778030725 | 17.78° C | 67% | 1015.1 hPa | 0 mm | - | - | - |
| 1778030424 | 18.33° C | 66% | 1015.1 hPa | 0 mm | - | - | - |
| 1778029817 | 18.89° C | 60% | 1015 hPa | 0 mm | - | - | - |
| 1778029518 | 18.89° C | 57% | 1015 hPa | 0 mm | - | - | - |
| 1778029216 | 18.89° C | 56% | 1015 hPa | 0 mm | - | - | - |
| 1778028917 | 18.89° C | 56% | 1015 hPa | 0 mm | - | - | - |
| 1778028317 | 19.44° C | 55% | 1015 hPa | 0 mm | - | - | - |
| 1778028016 | 19.44° C | 55% | 1015 hPa | 0 mm | - | - | - |
| 1778027717 | 19.44° C | 55% | 1015 hPa | 0 mm | - | - | - |
| 1778027417 | 19.44° C | 56% | 1015 hPa | 0 mm | - | - | - |
| 1778024117 | 18.89° C | 58% | 1014.9 hPa | 0 mm | - | - | - |
| 1778022917 | 18.33° C | 58% | 1015.1 hPa | 0 mm | - | - | - |
| 1778022504 | 18.33° C | 59% | 1015.2 hPa | 0 mm | - | - | - |
| 1778022205 | 18.33° C | 58% | 1015.3 hPa | 0 mm | - | - | - |
| 1778021304 | 18.33° C | 57% | 1015.3 hPa | 0 mm | - | - | - |
| 1778021004 | 18.33° C | 57% | 1015.3 hPa | 0 mm | - | - | - |
| 1778020704 | 18.89° C | 56% | 1015.3 hPa | 0 mm | - | - | - |
| 1778019504 | 18.33° C | 58% | 1015.5 hPa | 0 mm | - | - | - |
| 1778019204 | 18.33° C | 57% | 1015.5 hPa | 0 mm | - | - | - |
| 1778017704 | 18.33° C | 61% | 1015.9 hPa | 0 mm | - | - | - |
| 1778017104 | 17.78° C | 61% | 1016.2 hPa | 0 mm | - | - | - |
| 1778015698 | 17.22° C | 65% | 1016.5 hPa | 0 mm | - | - | - |
* Rain latest hour (hover to see other rain measurements)
** Current wind speed in m/s (hover to see current wind gust speed)